createdAt,value
2023-04-16T00:00:10.078Z,7.8
2023-04-16T00:10:10.299Z,7.8
2023-04-16T00:30:11.032Z,7.7
2023-04-16T00:50:12.033Z,7.7
2023-04-16T01:00:13.048Z,7.7
2023-04-16T01:10:14.037Z,7.7
2023-04-16T01:20:14.266Z,7.8
2023-04-16T01:30:14.377Z,7.8
2023-04-16T01:40:14.593Z,7.9
2023-04-16T02:00:14.899Z,8
2023-04-16T02:10:15.041Z,8.1
2023-04-16T02:20:15.138Z,8.1
2023-04-16T02:30:15.942Z,8.1
2023-04-16T02:40:16.894Z,8.1
2023-04-16T02:50:17.183Z,8.1
2023-04-16T03:00:17.848Z,8.2
2023-04-16T03:30:19.506Z,8.3
2023-04-16T03:50:20.419Z,8.3
2023-04-16T04:10:21.663Z,8.4
2023-04-16T04:20:21.862Z,8.4
2023-04-16T04:30:22.738Z,8.4
2023-04-16T04:40:23.214Z,8.4
2023-04-16T04:50:23.344Z,8.4
2023-04-16T05:00:23.958Z,8.5
2023-04-16T05:10:24.524Z,8.5
2023-04-16T05:20:24.749Z,8.5
2023-04-16T05:30:25.630Z,8.6
2023-04-16T05:50:26.867Z,8.6
2023-04-16T06:00:27.734Z,8.6
2023-04-16T06:10:28.704Z,8.7
2023-04-16T06:30:30.583Z,8.8
2023-04-16T06:40:31.297Z,8.8
2023-04-16T07:00:32.076Z,8.8
2023-04-16T07:20:33.075Z,8.8
2023-04-16T07:30:33.686Z,8.8
2023-04-16T07:50:35.285Z,9
2023-04-16T08:00:36.025Z,9
2023-04-16T08:10:37.063Z,9.1
2023-04-16T08:30:37.754Z,9.6
2023-04-16T08:40:38.196Z,9.6
2023-04-16T08:50:39.246Z,9.6
2023-04-16T09:40:43.503Z,10.6
2023-04-16T09:50:44.565Z,10.8
2023-04-16T10:10:45.715Z,11.5
2023-04-16T10:20:46.438Z,11.8
2023-04-16T10:30:47.192Z,11.6
2023-04-16T10:40:47.866Z,11.7
2023-04-16T10:50:48.191Z,12.1
2023-04-16T11:10:49.214Z,12.7
2023-04-16T11:20:49.939Z,12.8
2023-04-16T11:30:50.860Z,13.3
2023-04-16T11:40:50.994Z,13.3
2023-04-16T11:50:52.002Z,12.9
2023-04-16T12:20:53.423Z,12.8
2023-04-16T12:40:54.577Z,13.1
2023-04-16T12:50:55.559Z,13.4
2023-04-16T13:00:55.981Z,13.6
2023-04-16T13:10:56.831Z,13.4
2023-04-16T13:20:57.885Z,13.7
2023-04-16T13:40:58.293Z,13.7
2023-04-16T13:50:58.771Z,13.8
2023-04-16T14:20:59.784Z,13.8
2023-04-16T14:41:00.320Z,13.8
2023-04-16T14:51:00.650Z,13.7
2023-04-16T15:21:02.920Z,14.1
2023-04-16T15:31:03.394Z,14.5
2023-04-16T15:41:04.200Z,14.5
2023-04-16T15:51:04.597Z,14.4
2023-04-16T16:01:05.046Z,15.1
2023-04-16T16:11:05.834Z,15.2
2023-04-16T16:31:06.672Z,14.1
2023-04-16T16:41:07.477Z,13.9
2023-04-16T17:01:08.574Z,13.7
2023-04-16T17:11:09.348Z,13.6
2023-04-16T17:41:11.748Z,12.7
2023-04-16T18:11:14.162Z,12.3
2023-04-16T18:21:14.734Z,12.2
2023-04-16T18:31:15.280Z,12.1
2023-04-16T18:41:15.598Z,12
2023-04-16T18:51:16.654Z,11.9
2023-04-16T19:01:16.722Z,11.8
2023-04-16T19:11:16.902Z,11.7
2023-04-16T19:21:17.307Z,11.6
2023-04-16T19:41:18.484Z,11.4
2023-04-16T19:51:19.526Z,11.3
2023-04-16T20:01:20.421Z,11.2
2023-04-16T20:31:21.605Z,11.1
2023-04-16T20:41:21.920Z,11.1
2023-04-16T21:21:24.123Z,10.8
2023-04-16T21:41:25.488Z,10.7
2023-04-16T21:51:26.537Z,10.7
2023-04-16T22:01:26.893Z,10.7
2023-04-16T22:31:29.486Z,10.6
2023-04-16T22:41:29.569Z,10.5
2023-04-16T22:51:29.889Z,10.5
2023-04-16T23:01:30.878Z,10.4
2023-04-16T23:11:31.554Z,10.3
2023-04-16T23:21:32.125Z,10.3
2023-04-16T23:31:32.621Z,10.3
2023-04-16T23:41:32.949Z,10.2
2023-04-16T23:51:33.312Z,10.2
